sensor_id;sensor_type;location;lat;lon;timestamp;P1;durP1;ratioP1;P2;durP2;ratioP2
70942;SDS011;59154;51.970;5.650;2023-03-23T00:00:03;7.2;;;2.6;;
70942;SDS011;59154;51.970;5.650;2023-03-23T00:05:02;6.1;;;3.2;;
70942;SDS011;59154;51.970;5.650;2023-03-23T00:10:02;4.3;;;2.6;;
70942;SDS011;59154;51.970;5.650;2023-03-23T00:15:03;3.6;;;2.5;;
70942;SDS011;59154;51.970;5.650;2023-03-23T00:20:04;4.1;;;2.6;;
70942;SDS011;59154;51.970;5.650;2023-03-23T00:25:03;3.7;;;2.5;;
70942;SDS011;59154;51.970;5.650;2023-03-23T00:30:02;5.4;;;2.7;;
70942;SDS011;59154;51.970;5.650;2023-03-23T00:35:02;4.7;;;2.9;;
70942;SDS011;59154;51.970;5.650;2023-03-23T00:40:03;4.8;;;2.7;;
70942;SDS011;59154;51.970;5.650;2023-03-23T00:45:02;4.7;;;2.4;;
70942;SDS011;59154;51.970;5.650;2023-03-23T00:50:02;3.5;;;2.5;;
70942;SDS011;59154;51.970;5.650;2023-03-23T00:55:02;4.0;;;2.4;;
70942;SDS011;59154;51.970;5.650;2023-03-23T01:00:03;4.8;;;2.7;;
70942;SDS011;59154;51.970;5.650;2023-03-23T01:05:02;4.9;;;2.7;;
70942;SDS011;59154;51.970;5.650;2023-03-23T01:10:03;6.6;;;3.4;;
70942;SDS011;59154;51.970;5.650;2023-03-23T01:15:02;6.4;;;2.9;;
70942;SDS011;59154;51.970;5.650;2023-03-23T01:20:03;4.0;;;2.4;;
70942;SDS011;59154;51.970;5.650;2023-03-23T01:25:02;4.9;;;2.7;;
70942;SDS011;59154;51.970;5.650;2023-03-23T01:30:03;5.7;;;2.8;;
70942;SDS011;59154;51.970;5.650;2023-03-23T01:35:02;3.6;;;2.2;;
70942;SDS011;59154;51.970;5.650;2023-03-23T01:40:03;4.4;;;2.7;;
70942;SDS011;59154;51.970;5.650;2023-03-23T01:45:27;4.2;;;2.6;;
70942;SDS011;59154;51.970;5.650;2023-03-23T01:50:02;3.5;;;2.4;;
70942;SDS011;59154;51.970;5.650;2023-03-23T01:55:03;5.7;;;2.9;;
70942;SDS011;59154;51.970;5.650;2023-03-23T02:00:04;5.2;;;2.8;;
70942;SDS011;59154;51.970;5.650;2023-03-23T02:05:02;5.3;;;2.4;;
70942;SDS011;59154;51.970;5.650;2023-03-23T02:10:03;4.0;;;2.5;;
70942;SDS011;59154;51.970;5.650;2023-03-23T02:15:03;3.6;;;2.6;;
70942;SDS011;59154;51.970;5.650;2023-03-23T02:20:11;3.9;;;2.8;;
70942;SDS011;59154;51.970;5.650;2023-03-23T02:25:07;5.3;;;3.1;;
70942;SDS011;59154;51.970;5.650;2023-03-23T02:30:08;4.8;;;2.7;;
70942;SDS011;59154;51.970;5.650;2023-03-23T02:35:03;6.0;;;3.0;;
70942;SDS011;59154;51.970;5.650;2023-03-23T02:40:04;3.9;;;2.9;;
70942;SDS011;59154;51.970;5.650;2023-03-23T02:45:04;5.5;;;2.9;;
70942;SDS011;59154;51.970;5.650;2023-03-23T02:50:03;4.7;;;2.5;;
70942;SDS011;59154;51.970;5.650;2023-03-23T02:55:02;3.7;;;2.9;;
70942;SDS011;59154;51.970;5.650;2023-03-23T03:00:03;3.2;;;2.5;;
70942;SDS011;59154;51.970;5.650;2023-03-23T03:05:03;3.4;;;2.6;;
70942;SDS011;59154;51.970;5.650;2023-03-23T03:10:04;4.6;;;3.1;;
70942;SDS011;59154;51.970;5.650;2023-03-23T03:15:07;4.8;;;3.1;;
70942;SDS011;59154;51.970;5.650;2023-03-23T03:20:04;5.9;;;3.2;;
70942;SDS011;59154;51.970;5.650;2023-03-23T03:25:02;4.9;;;3.4;;
70942;SDS011;59154;51.970;5.650;2023-03-23T03:30:03;4.1;;;3.0;;
70942;SDS011;59154;51.970;5.650;2023-03-23T03:35:02;4.3;;;2.6;;
70942;SDS011;59154;51.970;5.650;2023-03-23T03:40:04;6.3;;;3.3;;
70942;SDS011;59154;51.970;5.650;2023-03-23T03:45:02;6.7;;;2.9;;
70942;SDS011;59154;51.970;5.650;2023-03-23T03:50:02;5.4;;;2.6;;
70942;SDS011;59154;51.970;5.650;2023-03-23T03:55:02;5.2;;;3.1;;
70942;SDS011;59154;51.970;5.650;2023-03-23T04:00:03;3.9;;;2.3;;
70942;SDS011;59154;51.970;5.650;2023-03-23T04:05:02;3.4;;;2.2;;
70942;SDS011;59154;51.970;5.650;2023-03-23T04:10:03;4.8;;;2.7;;
70942;SDS011;59154;51.970;5.650;2023-03-23T04:15:02;3.8;;;2.5;;
70942;SDS011;59154;51.970;5.650;2023-03-23T04:20:04;4.3;;;2.6;;
70942;SDS011;59154;51.970;5.650;2023-03-23T04:25:03;4.3;;;2.3;;
70942;SDS011;59154;51.970;5.650;2023-03-23T04:30:02;3.7;;;2.3;;
70942;SDS011;59154;51.970;5.650;2023-03-23T04:35:02;5.2;;;2.6;;
70942;SDS011;59154;51.970;5.650;2023-03-23T04:40:04;5.7;;;2.3;;
70942;SDS011;59154;51.970;5.650;2023-03-23T04:45:03;3.7;;;2.1;;
70942;SDS011;59154;51.970;5.650;2023-03-23T04:50:02;8.2;;;2.4;;
70942;SDS011;59154;51.970;5.650;2023-03-23T04:55:02;6.6;;;2.5;;
70942;SDS011;59154;51.970;5.650;2023-03-23T05:00:04;4.3;;;2.4;;
70942;SDS011;59154;51.970;5.650;2023-03-23T05:05:02;4.9;;;2.4;;
70942;SDS011;59154;51.970;5.650;2023-03-23T05:10:02;4.1;;;2.1;;
70942;SDS011;59154;51.970;5.650;2023-03-23T05:15:03;3.9;;;2.4;;
70942;SDS011;59154;51.970;5.650;2023-03-23T05:20:03;5.2;;;2.1;;
70942;SDS011;59154;51.970;5.650;2023-03-23T05:25:03;4.3;;;2.1;;
70942;SDS011;59154;51.970;5.650;2023-03-23T05:30:02;6.1;;;2.8;;
70942;SDS011;59154;51.970;5.650;2023-03-23T05:35:02;5.9;;;2.5;;
70942;SDS011;59154;51.970;5.650;2023-03-23T05:40:03;9.6;;;2.6;;
70942;SDS011;59154;51.970;5.650;2023-03-23T05:45:02;6.4;;;2.6;;
70942;SDS011;59154;51.970;5.650;2023-03-23T05:50:02;6.9;;;2.2;;
70942;SDS011;59154;51.970;5.650;2023-03-23T05:55:03;4.5;;;2.0;;
70942;SDS011;59154;51.970;5.650;2023-03-23T06:00:03;5.5;;;2.0;;
70942;SDS011;59154;51.970;5.650;2023-03-23T06:05:02;4.7;;;2.1;;
70942;SDS011;59154;51.970;5.650;2023-03-23T06:10:03;3.8;;;1.7;;
70942;SDS011;59154;51.970;5.650;2023-03-23T06:15:02;5.7;;;2.2;;
70942;SDS011;59154;51.970;5.650;2023-03-23T06:20:03;8.2;;;1.9;;
70942;SDS011;59154;51.970;5.650;2023-03-23T06:25:03;6.2;;;2.3;;
70942;SDS011;59154;51.970;5.650;2023-03-23T06:30:03;4.5;;;2.1;;
70942;SDS011;59154;51.970;5.650;2023-03-23T06:35:02;5.9;;;2.2;;
70942;SDS011;59154;51.970;5.650;2023-03-23T06:40:03;5.8;;;2.3;;
70942;SDS011;59154;51.970;5.650;2023-03-23T06:45:03;5.2;;;2.1;;
70942;SDS011;59154;51.970;5.650;2023-03-23T06:50:02;3.3;;;2.1;;
70942;SDS011;59154;51.970;5.650;2023-03-23T06:55:02;3.3;;;1.7;;
70942;SDS011;59154;51.970;5.650;2023-03-23T07:00:02;4.2;;;2.3;;
70942;SDS011;59154;51.970;5.650;2023-03-23T07:05:02;6.8;;;2.2;;
70942;SDS011;59154;51.970;5.650;2023-03-23T07:10:02;6.0;;;2.1;;
70942;SDS011;59154;51.970;5.650;2023-03-23T07:15:02;6.5;;;2.3;;
70942;SDS011;59154;51.970;5.650;2023-03-23T07:20:03;5.9;;;2.4;;
70942;SDS011;59154;51.970;5.650;2023-03-23T07:25:03;8.0;;;2.8;;
70942;SDS011;59154;51.970;5.650;2023-03-23T07:30:03;4.8;;;2.3;;
70942;SDS011;59154;51.970;5.650;2023-03-23T07:35:02;5.9;;;2.4;;
70942;SDS011;59154;51.970;5.650;2023-03-23T07:40:03;4.3;;;2.0;;
70942;SDS011;59154;51.970;5.650;2023-03-23T07:45:02;3.5;;;2.0;;
70942;SDS011;59154;51.970;5.650;2023-03-23T07:50:02;3.7;;;1.9;;
70942;SDS011;59154;51.970;5.650;2023-03-23T07:55:03;4.6;;;2.3;;
70942;SDS011;59154;51.970;5.650;2023-03-23T08:00:04;6.9;;;2.7;;
70942;SDS011;59154;51.970;5.650;2023-03-23T08:05:02;7.0;;;2.4;;
70942;SDS011;59154;51.970;5.650;2023-03-23T08:10:02;7.8;;;2.6;;
70942;SDS011;59154;51.970;5.650;2023-03-23T08:15:02;6.5;;;2.5;;
70942;SDS011;59154;51.970;5.650;2023-03-23T08:20:03;6.7;;;2.7;;
70942;SDS011;59154;51.970;5.650;2023-03-23T08:25:02;7.0;;;2.8;;
70942;SDS011;59154;51.970;5.650;2023-03-23T08:30:03;7.8;;;2.5;;
70942;SDS011;59154;51.970;5.650;2023-03-23T08:35:03;4.7;;;2.7;;
70942;SDS011;59154;51.970;5.650;2023-03-23T08:40:04;9.0;;;2.6;;
70942;SDS011;59154;51.970;5.650;2023-03-23T08:45:02;4.1;;;1.9;;
70942;SDS011;59154;51.970;5.650;2023-03-23T08:50:03;6.6;;;2.0;;
70942;SDS011;59154;51.970;5.650;2023-03-23T08:55:03;4.0;;;1.8;;
70942;SDS011;59154;51.970;5.650;2023-03-23T09:00:03;4.4;;;2.1;;
70942;SDS011;59154;51.970;5.650;2023-03-23T09:05:02;3.1;;;1.6;;
70942;SDS011;59154;51.970;5.650;2023-03-23T09:10:03;4.8;;;1.8;;
70942;SDS011;59154;51.970;5.650;2023-03-23T09:15:02;2.7;;;1.7;;
70942;SDS011;59154;51.970;5.650;2023-03-23T09:20:03;2.1;;;1.3;;
70942;SDS011;59154;51.970;5.650;2023-03-23T09:25:02;3.4;;;1.7;;
70942;SDS011;59154;51.970;5.650;2023-03-23T09:30:03;4.2;;;1.5;;
70942;SDS011;59154;51.970;5.650;2023-03-23T09:35:02;3.4;;;1.7;;
70942;SDS011;59154;51.970;5.650;2023-03-23T09:40:04;4.5;;;2.1;;
70942;SDS011;59154;51.970;5.650;2023-03-23T09:45:06;3.8;;;1.4;;
70942;SDS011;59154;51.970;5.650;2023-03-23T09:50:04;6.0;;;1.7;;
70942;SDS011;59154;51.970;5.650;2023-03-23T09:55:02;5.3;;;1.8;;
70942;SDS011;59154;51.970;5.650;2023-03-23T10:00:03;4.9;;;2.1;;
70942;SDS011;59154;51.970;5.650;2023-03-23T10:05:06;4.1;;;2.2;;
70942;SDS011;59154;51.970;5.650;2023-03-23T10:10:03;5.4;;;2.6;;
70942;SDS011;59154;51.970;5.650;2023-03-23T10:15:08;9.1;;;3.2;;
70942;SDS011;59154;51.970;5.650;2023-03-23T10:20:10;4.8;;;1.9;;
70942;SDS011;59154;51.970;5.650;2023-03-23T10:25:06;6.0;;;2.5;;
70942;SDS011;59154;51.970;5.650;2023-03-23T10:30:03;6.5;;;2.5;;
70942;SDS011;59154;51.970;5.650;2023-03-23T10:35:03;5.4;;;2.2;;
70942;SDS011;59154;51.970;5.650;2023-03-23T10:40:05;7.4;;;2.7;;
70942;SDS011;59154;51.970;5.650;2023-03-23T10:45:10;5.9;;;2.7;;
70942;SDS011;59154;51.970;5.650;2023-03-23T10:50:04;8.3;;;2.7;;
70942;SDS011;59154;51.970;5.650;2023-03-23T10:55:03;8.6;;;2.5;;
70942;SDS011;59154;51.970;5.650;2023-03-23T11:00:04;4.7;;;2.5;;
70942;SDS011;59154;51.970;5.650;2023-03-23T11:05:03;5.9;;;1.9;;
70942;SDS011;59154;51.970;5.650;2023-03-23T11:10:07;7.3;;;2.2;;
70942;SDS011;59154;51.970;5.650;2023-03-23T11:15:04;6.9;;;2.3;;
70942;SDS011;59154;51.970;5.650;2023-03-23T11:20:09;7.1;;;2.3;;
70942;SDS011;59154;51.970;5.650;2023-03-23T11:25:04;7.0;;;2.6;;
70942;SDS011;59154;51.970;5.650;2023-03-23T11:30:07;5.4;;;2.1;;
70942;SDS011;59154;51.970;5.650;2023-03-23T11:35:02;6.1;;;2.1;;
70942;SDS011;59154;51.970;5.650;2023-03-23T11:40:14;7.4;;;3.0;;
70942;SDS011;59154;51.970;5.650;2023-03-23T11:45:13;8.7;;;2.9;;
70942;SDS011;59154;51.970;5.650;2023-03-23T11:50:04;10.4;;;3.0;;
70942;SDS011;59154;51.970;5.650;2023-03-23T11:55:03;5.9;;;2.2;;
70942;SDS011;59154;51.970;5.650;2023-03-23T12:00:10;7.7;;;2.2;;
70942;SDS011;59154;51.970;5.650;2023-03-23T12:05:10;6.8;;;2.8;;
70942;SDS011;59154;51.970;5.650;2023-03-23T12:10:06;6.7;;;2.0;;
70942;SDS011;59154;51.970;5.650;2023-03-23T12:15:04;4.3;;;2.0;;
70942;SDS011;59154;51.970;5.650;2023-03-23T12:20:10;6.3;;;1.7;;
70942;SDS011;59154;51.970;5.650;2023-03-23T12:25:05;4.8;;;2.1;;
70942;SDS011;59154;51.970;5.650;2023-03-23T12:30:09;4.5;;;2.0;;
70942;SDS011;59154;51.970;5.650;2023-03-23T12:35:06;4.5;;;2.3;;
70942;SDS011;59154;51.970;5.650;2023-03-23T12:40:16;4.6;;;1.8;;
70942;SDS011;59154;51.970;5.650;2023-03-23T12:45:05;5.6;;;2.6;;
70942;SDS011;59154;51.970;5.650;2023-03-23T12:50:05;6.1;;;2.7;;
70942;SDS011;59154;51.970;5.650;2023-03-23T12:55:04;8.4;;;2.7;;
70942;SDS011;59154;51.970;5.650;2023-03-23T13:00:06;7.5;;;2.3;;
70942;SDS011;59154;51.970;5.650;2023-03-23T13:05:03;5.6;;;2.6;;
70942;SDS011;59154;51.970;5.650;2023-03-23T13:10:04;3.5;;;1.8;;
70942;SDS011;59154;51.970;5.650;2023-03-23T13:15:04;4.5;;;1.5;;
70942;SDS011;59154;51.970;5.650;2023-03-23T13:20:11;3.6;;;1.5;;
70942;SDS011;59154;51.970;5.650;2023-03-23T13:25:03;4.6;;;1.5;;
70942;SDS011;59154;51.970;5.650;2023-03-23T13:30:03;2.4;;;1.1;;
70942;SDS011;59154;51.970;5.650;2023-03-23T13:35:03;4.5;;;1.5;;
70942;SDS011;59154;51.970;5.650;2023-03-23T13:40:13;6.1;;;1.6;;
70942;SDS011;59154;51.970;5.650;2023-03-23T13:45:07;5.6;;;2.3;;
70942;SDS011;59154;51.970;5.650;2023-03-23T13:50:03;3.6;;;1.6;;
70942;SDS011;59154;51.970;5.650;2023-03-23T13:55:13;2.6;;;1.4;;
70942;SDS011;59154;51.970;5.650;2023-03-23T14:00:38;9.8;;;2.0;;
70942;SDS011;59154;51.970;5.650;2023-03-23T14:05:19;3.9;;;1.9;;
70942;SDS011;59154;51.970;5.650;2023-03-23T14:10:05;4.8;;;2.0;;
70942;SDS011;59154;51.970;5.650;2023-03-23T14:15:02;4.9;;;2.1;;
70942;SDS011;59154;51.970;5.650;2023-03-23T14:20:04;4.9;;;2.6;;
70942;SDS011;59154;51.970;5.650;2023-03-23T14:25:02;4.7;;;2.2;;
70942;SDS011;59154;51.970;5.650;2023-03-23T14:30:04;3.1;;;1.6;;
70942;SDS011;59154;51.970;5.650;2023-03-23T14:35:04;2.5;;;1.8;;
70942;SDS011;59154;51.970;5.650;2023-03-23T14:40:04;4.4;;;2.0;;
70942;SDS011;59154;51.970;5.650;2023-03-23T14:45:04;6.8;;;2.1;;
70942;SDS011;59154;51.970;5.650;2023-03-23T14:50:04;3.3;;;2.0;;
70942;SDS011;59154;51.970;5.650;2023-03-23T14:55:10;5.0;;;2.0;;
70942;SDS011;59154;51.970;5.650;2023-03-23T15:00:04;5.4;;;2.1;;
70942;SDS011;59154;51.970;5.650;2023-03-23T15:05:02;5.9;;;1.9;;
70942;SDS011;59154;51.970;5.650;2023-03-23T15:10:05;9.1;;;2.1;;
70942;SDS011;59154;51.970;5.650;2023-03-23T15:15:03;3.4;;;1.9;;
70942;SDS011;59154;51.970;5.650;2023-03-23T15:20:07;6.6;;;2.2;;
70942;SDS011;59154;51.970;5.650;2023-03-23T15:25:03;5.5;;;2.1;;
70942;SDS011;59154;51.970;5.650;2023-03-23T15:30:11;6.6;;;2.2;;
70942;SDS011;59154;51.970;5.650;2023-03-23T15:35:03;8.8;;;2.5;;
70942;SDS011;59154;51.970;5.650;2023-03-23T15:40:03;6.8;;;2.2;;
70942;SDS011;59154;51.970;5.650;2023-03-23T15:45:05;6.6;;;2.4;;
70942;SDS011;59154;51.970;5.650;2023-03-23T15:50:04;5.5;;;2.3;;
70942;SDS011;59154;51.970;5.650;2023-03-23T15:55:03;4.3;;;2.4;;
70942;SDS011;59154;51.970;5.650;2023-03-23T16:00:03;10.1;;;2.7;;
70942;SDS011;59154;51.970;5.650;2023-03-23T16:05:03;3.6;;;1.8;;
70942;SDS011;59154;51.970;5.650;2023-03-23T16:10:03;6.4;;;2.4;;
70942;SDS011;59154;51.970;5.650;2023-03-23T16:15:02;5.9;;;2.4;;
70942;SDS011;59154;51.970;5.650;2023-03-23T16:20:08;9.8;;;3.0;;
70942;SDS011;59154;51.970;5.650;2023-03-23T16:25:02;8.2;;;2.2;;
70942;SDS011;59154;51.970;5.650;2023-03-23T16:30:08;8.2;;;2.7;;
70942;SDS011;59154;51.970;5.650;2023-03-23T16:35:02;3.6;;;2.1;;
70942;SDS011;59154;51.970;5.650;2023-03-23T16:40:03;5.1;;;2.4;;
70942;SDS011;59154;51.970;5.650;2023-03-23T16:45:02;5.7;;;1.9;;
70942;SDS011;59154;51.970;5.650;2023-03-23T16:50:02;6.4;;;1.9;;
70942;SDS011;59154;51.970;5.650;2023-03-23T16:55:02;7.3;;;2.2;;
70942;SDS011;59154;51.970;5.650;2023-03-23T17:00:04;4.0;;;2.0;;
70942;SDS011;59154;51.970;5.650;2023-03-23T17:05:02;4.4;;;2.0;;
70942;SDS011;59154;51.970;5.650;2023-03-23T17:10:03;6.8;;;2.1;;
70942;SDS011;59154;51.970;5.650;2023-03-23T17:15:02;4.8;;;2.0;;
70942;SDS011;59154;51.970;5.650;2023-03-23T17:20:04;6.3;;;2.7;;
70942;SDS011;59154;51.970;5.650;2023-03-23T17:25:03;6.2;;;2.5;;
70942;SDS011;59154;51.970;5.650;2023-03-23T17:30:03;7.5;;;2.1;;
70942;SDS011;59154;51.970;5.650;2023-03-23T17:35:03;6.8;;;2.4;;
70942;SDS011;59154;51.970;5.650;2023-03-23T17:40:03;5.8;;;2.2;;
70942;SDS011;59154;51.970;5.650;2023-03-23T17:45:02;3.9;;;2.0;;
70942;SDS011;59154;51.970;5.650;2023-03-23T17:50:03;6.7;;;2.0;;
70942;SDS011;59154;51.970;5.650;2023-03-23T17:55:02;4.7;;;2.1;;
70942;SDS011;59154;51.970;5.650;2023-03-23T18:00:03;6.4;;;2.6;;
70942;SDS011;59154;51.970;5.650;2023-03-23T18:05:02;7.7;;;2.7;;
70942;SDS011;59154;51.970;5.650;2023-03-23T18:10:03;6.1;;;2.5;;
70942;SDS011;59154;51.970;5.650;2023-03-23T18:15:02;6.9;;;2.6;;
70942;SDS011;59154;51.970;5.650;2023-03-23T18:20:03;4.3;;;2.2;;
70942;SDS011;59154;51.970;5.650;2023-03-23T18:25:03;6.3;;;2.8;;
70942;SDS011;59154;51.970;5.650;2023-03-23T18:30:02;6.2;;;2.6;;
70942;SDS011;59154;51.970;5.650;2023-03-23T18:35:02;5.3;;;2.8;;
70942;SDS011;59154;51.970;5.650;2023-03-23T18:40:04;8.3;;;3.2;;
70942;SDS011;59154;51.970;5.650;2023-03-23T18:45:02;6.1;;;2.9;;
70942;SDS011;59154;51.970;5.650;2023-03-23T18:50:02;5.4;;;2.9;;
70942;SDS011;59154;51.970;5.650;2023-03-23T18:55:02;8.5;;;3.2;;
70942;SDS011;59154;51.970;5.650;2023-03-23T19:00:04;7.8;;;3.2;;
70942;SDS011;59154;51.970;5.650;2023-03-23T19:05:02;4.9;;;3.1;;
70942;SDS011;59154;51.970;5.650;2023-03-23T19:10:02;7.6;;;3.0;;
70942;SDS011;59154;51.970;5.650;2023-03-23T19:15:02;7.4;;;3.3;;
70942;SDS011;59154;51.970;5.650;2023-03-23T19:20:03;7.3;;;3.0;;
70942;SDS011;59154;51.970;5.650;2023-03-23T19:25:02;4.2;;;2.9;;
70942;SDS011;59154;51.970;5.650;2023-03-23T19:30:02;4.9;;;3.1;;
70942;SDS011;59154;51.970;5.650;2023-03-23T19:35:03;7.7;;;3.0;;
70942;SDS011;59154;51.970;5.650;2023-03-23T19:40:03;7.4;;;3.5;;
70942;SDS011;59154;51.970;5.650;2023-03-23T19:45:02;7.2;;;2.9;;
70942;SDS011;59154;51.970;5.650;2023-03-23T19:50:02;6.4;;;3.1;;
70942;SDS011;59154;51.970;5.650;2023-03-23T19:55:02;4.2;;;2.5;;
70942;SDS011;59154;51.970;5.650;2023-03-23T20:00:03;5.4;;;2.4;;
70942;SDS011;59154;51.970;5.650;2023-03-23T20:05:02;6.5;;;2.6;;
70942;SDS011;59154;51.970;5.650;2023-03-23T20:10:02;7.4;;;3.0;;
70942;SDS011;59154;51.970;5.650;2023-03-23T20:15:02;6.5;;;3.0;;
70942;SDS011;59154;51.970;5.650;2023-03-23T20:20:04;6.2;;;2.2;;
70942;SDS011;59154;51.970;5.650;2023-03-23T20:25:03;4.8;;;2.6;;
70942;SDS011;59154;51.970;5.650;2023-03-23T20:30:04;5.7;;;2.9;;
70942;SDS011;59154;51.970;5.650;2023-03-23T20:35:04;5.9;;;2.8;;
70942;SDS011;59154;51.970;5.650;2023-03-23T20:40:03;5.3;;;2.6;;
70942;SDS011;59154;51.970;5.650;2023-03-23T20:45:03;7.9;;;2.9;;
70942;SDS011;59154;51.970;5.650;2023-03-23T20:50:03;7.1;;;3.2;;
70942;SDS011;59154;51.970;5.650;2023-03-23T20:55:02;7.8;;;3.0;;
70942;SDS011;59154;51.970;5.650;2023-03-23T21:00:03;6.6;;;3.1;;
70942;SDS011;59154;51.970;5.650;2023-03-23T21:05:02;5.8;;;3.0;;
70942;SDS011;59154;51.970;5.650;2023-03-23T21:10:02;3.9;;;2.5;;
70942;SDS011;59154;51.970;5.650;2023-03-23T21:15:03;9.0;;;3.2;;
70942;SDS011;59154;51.970;5.650;2023-03-23T21:20:03;6.3;;;3.0;;
70942;SDS011;59154;51.970;5.650;2023-03-23T21:25:03;6.6;;;3.1;;
70942;SDS011;59154;51.970;5.650;2023-03-23T21:30:03;7.0;;;3.2;;
70942;SDS011;59154;51.970;5.650;2023-03-23T21:35:02;5.3;;;2.9;;
70942;SDS011;59154;51.970;5.650;2023-03-23T21:40:03;6.4;;;3.2;;
70942;SDS011;59154;51.970;5.650;2023-03-23T21:45:02;5.8;;;2.7;;
70942;SDS011;59154;51.970;5.650;2023-03-23T21:50:03;5.4;;;2.5;;
70942;SDS011;59154;51.970;5.650;2023-03-23T21:55:02;4.8;;;2.7;;
70942;SDS011;59154;51.970;5.650;2023-03-23T22:00:04;4.7;;;2.7;;
70942;SDS011;59154;51.970;5.650;2023-03-23T22:05:02;5.0;;;2.2;;
70942;SDS011;59154;51.970;5.650;2023-03-23T22:10:03;6.1;;;2.7;;
70942;SDS011;59154;51.970;5.650;2023-03-23T22:15:03;4.1;;;1.8;;
70942;SDS011;59154;51.970;5.650;2023-03-23T22:20:03;4.4;;;2.1;;
70942;SDS011;59154;51.970;5.650;2023-03-23T22:25:03;6.3;;;2.5;;
70942;SDS011;59154;51.970;5.650;2023-03-23T22:30:03;5.3;;;2.4;;
70942;SDS011;59154;51.970;5.650;2023-03-23T22:35:02;4.4;;;2.3;;
70942;SDS011;59154;51.970;5.650;2023-03-23T22:40:03;4.6;;;2.6;;
70942;SDS011;59154;51.970;5.650;2023-03-23T22:45:02;4.8;;;2.5;;
70942;SDS011;59154;51.970;5.650;2023-03-23T22:50:02;6.6;;;2.8;;
70942;SDS011;59154;51.970;5.650;2023-03-23T22:55:03;7.2;;;2.6;;
70942;SDS011;59154;51.970;5.650;2023-03-23T23:00:03;4.1;;;2.5;;
70942;SDS011;59154;51.970;5.650;2023-03-23T23:05:02;3.6;;;2.1;;
70942;SDS011;59154;51.970;5.650;2023-03-23T23:10:04;3.9;;;2.4;;
70942;SDS011;59154;51.970;5.650;2023-03-23T23:15:03;3.3;;;1.8;;
70942;SDS011;59154;51.970;5.650;2023-03-23T23:20:04;3.9;;;1.9;;
70942;SDS011;59154;51.970;5.650;2023-03-23T23:25:02;3.8;;;2.1;;
70942;SDS011;59154;51.970;5.650;2023-03-23T23:30:03;7.4;;;2.5;;
70942;SDS011;59154;51.970;5.650;2023-03-23T23:35:03;3.7;;;2.0;;
70942;SDS011;59154;51.970;5.650;2023-03-23T23:40:03;3.4;;;2.1;;
70942;SDS011;59154;51.970;5.650;2023-03-23T23:45:02;4.0;;;1.7;;
70942;SDS011;59154;51.970;5.650;2023-03-23T23:50:03;4.0;;;2.3;;
70942;SDS011;59154;51.970;5.650;2023-03-23T23:55:02;4.0;;;2.3;;
